Time;durP1;ratioP1;P1;durP2;ratioP2;P2;SDS_P1;SDS_P2;PMS_P1;PMS_P2;Temp;Humidity;BMP_temperature;BMP_pressure;BME280_temperature;BME280_humidity;BME280_pressure;Samples;Min_cycle;Max_cycle;Signal;HPM_P1;HPM_P2
2022/11/03 00:00:09;;;;;;;3.97;1.40;;;;;;;;;;5021615;28;20195;-68
2022/11/03 00:02:38;;;;;;;4.17;1.47;;;;;;;;;;5010069;28;20184;-68
2022/11/03 00:06:03;;;;;;;6.10;1.67;;;;;;;;;;5026858;28;20188;-67
2022/11/03 00:07:52;;;;;;;4.00;1.30;;;;;;;;;;5012292;28;20199;-67
2022/11/03 00:10:19;;;;;;;3.27;1.20;;;;;;;;;;5010635;28;20211;-68
2022/11/03 00:12:45;;;;;;;3.93;1.23;;;;;;;;;;5011769;28;20192;-68
2022/11/03 00:15:12;;;;;;;4.40;1.10;;;;;;;;;;5013687;28;20207;-68
2022/11/03 00:17:38;;;;;;;3.90;1.37;;;;;;;;;;5023630;28;20196;-68
2022/11/03 00:20:05;;;;;;;3.43;1.03;;;;;;;;;;5026872;28;20219;-68
2022/11/03 00:22:32;;;;;;;4.07;1.40;;;;;;;;;;5013661;28;20666;-68
2022/11/03 00:24:59;;;;;;;4.17;1.00;;;;;;;;;;5016956;28;20215;-68
2022/11/03 00:27:25;;;;;;;4.20;1.70;;;;;;;;;;5031714;28;20184;-68
2022/11/03 00:29:52;;;;;;;4.17;1.30;;;;;;;;;;5031997;28;20218;-68
2022/11/03 00:32:18;;;;;;;6.77;2.30;;;;;;;;;;5031694;28;20277;-68
2022/11/03 00:34:45;;;;;;;7.03;1.90;;;;;;;;;;5031699;28;20222;-68
2022/11/03 00:37:11;;;;;;;5.20;1.90;;;;;;;;;;5026639;28;20258;-67
2022/11/03 00:39:38;;;;;;;6.10;2.10;;;;;;;;;;5018288;28;20291;-68
2022/11/03 00:42:05;;;;;;;5.60;2.00;;;;;;;;;;5031451;28;20215;-68
2022/11/03 00:44:31;;;;;;;12.23;2.10;;;;;;;;;;5017921;28;20283;-68
2022/11/03 00:46:58;;;;;;;4.67;1.50;;;;;;;;;;5028594;28;20204;-67
2022/11/03 00:49:24;;;;;;;4.33;1.90;;;;;;;;;;5023671;28;20248;-68
2022/11/03 00:51:51;;;;;;;4.30;1.40;;;;;;;;;;5010958;28;20224;-68
2022/11/03 00:54:17;;;;;;;5.50;1.70;;;;;;;;;;5021006;28;20274;-68
2022/11/03 00:56:44;;;;;;;8.87;1.83;;;;;;;;;;5010506;28;20188;-68
2022/11/03 00:59:10;;;;;;;5.97;1.77;;;;;;;;;;5011824;28;20224;-68
2022/11/03 01:01:40;;;;;;;6.63;1.23;;;;;;;;;;5008984;28;20235;-68
2022/11/03 01:07:08;;;;;;;7.10;1.70;;;;;;;;;;4979312;28;20260;-68
2022/11/03 01:09:36;;;;;;;5.03;1.60;;;;;;;;;;5010698;28;20254;-68
2022/11/03 01:12:04;;;;;;;6.47;1.20;;;;;;;;;;5010759;28;20718;-67
2022/11/03 01:14:30;;;;;;;6.90;1.40;;;;;;;;;;5010279;28;20207;-68
2022/11/03 01:16:57;;;;;;;6.40;1.30;;;;;;;;;;5029794;28;20196;-68
2022/11/03 01:19:24;;;;;;;11.63;1.63;;;;;;;;;;5008420;28;20608;-68
2022/11/03 01:21:51;;;;;;;9.13;1.50;;;;;;;;;;5011565;28;20196;-68
2022/11/03 01:24:18;;;;;;;6.27;1.40;;;;;;;;;;5010792;28;20203;-69
2022/11/03 01:26:44;;;;;;;8.47;1.63;;;;;;;;;;5023864;28;20714;-68
2022/11/03 01:29:11;;;;;;;6.93;1.67;;;;;;;;;;5011192;28;20711;-68
2022/11/03 01:31:37;;;;;;;5.53;1.50;;;;;;;;;;5024420;28;20219;-68
2022/11/03 01:34:04;;;;;;;7.50;1.53;;;;;;;;;;5013957;28;20314;-68
2022/11/03 01:36:31;;;;;;;10.00;1.77;;;;;;;;;;5019924;28;20547;-69
2022/11/03 01:38:57;;;;;;;6.93;1.60;;;;;;;;;;5013217;28;20278;-68
2022/11/03 01:41:25;;;;;;;8.60;1.40;;;;;;;;;;5028524;28;20196;-69
2022/11/03 01:44:06;;;;;;;6.33;1.13;;;;;;;;;;5013795;28;20192;-68
2022/11/03 01:46:37;;;;;;;7.40;2.23;;;;;;;;;;5025748;28;20188;-68
2022/11/03 01:49:05;;;;;;;5.63;1.73;;;;;;;;;;5015083;28;20263;-68
2022/11/03 01:51:32;;;;;;;7.37;2.23;;;;;;;;;;5024212;28;20208;-67
2022/11/03 01:53:59;;;;;;;10.07;2.90;;;;;;;;;;5021053;28;20192;-68
2022/11/03 01:56:25;;;;;;;6.30;2.00;;;;;;;;;;5020747;28;20922;-68
2022/11/03 01:58:52;;;;;;;5.93;1.87;;;;;;;;;;5025970;28;20200;-68
2022/11/03 02:01:19;;;;;;;8.13;1.83;;;;;;;;;;5016541;28;20196;-68
2022/11/03 02:03:48;;;;;;;7.47;1.50;;;;;;;;;;5020321;28;20222;-68
2022/11/03 02:06:14;;;;;;;5.53;1.83;;;;;;;;;;5021873;28;20527;-67
2022/11/03 02:08:45;;;;;;;7.10;1.80;;;;;;;;;;5023746;28;20713;-69
2022/11/03 02:13:58;;;;;;;5.53;2.40;;;;;;;;;;5028642;28;20237;-68
2022/11/03 02:16:25;;;;;;;11.63;2.33;;;;;;;;;;5014998;28;20614;-67
2022/11/03 02:18:52;;;;;;;10.17;2.60;;;;;;;;;;5008958;28;20242;-68
2022/11/03 02:21:25;;;;;;;5.03;2.30;;;;;;;;;;5009435;28;20555;-68
2022/11/03 02:23:54;;;;;;;7.17;2.70;;;;;;;;;;5011279;28;20652;-68
2022/11/03 02:26:21;;;;;;;7.77;2.77;;;;;;;;;;5009245;28;20184;-68
2022/11/03 02:28:48;;;;;;;11.90;2.40;;;;;;;;;;5009393;28;21001;-67
2022/11/03 02:31:34;;;;;;;6.53;2.60;;;;;;;;;;5014179;28;20636;-69
2022/11/03 02:34:01;;;;;;;7.33;2.50;;;;;;;;;;5029635;28;20603;-67
2022/11/03 02:36:50;;;;;;;8.83;2.90;;;;;;;;;;5015110;28;20663;-67
2022/11/03 02:39:20;;;;;;;5.33;2.77;;;;;;;;;;5008110;28;20427;-68
2022/11/03 02:41:46;;;;;;;8.80;2.50;;;;;;;;;;5009556;28;20191;-68
2022/11/03 02:44:14;;;;;;;10.33;3.43;;;;;;;;;;5025145;28;20226;-69
2022/11/03 02:46:42;;;;;;;8.80;3.00;;;;;;;;;;5025079;28;20643;-68
2022/11/03 02:49:08;;;;;;;9.10;2.70;;;;;;;;;;5011022;28;20211;-68
2022/11/03 02:51:35;;;;;;;10.47;3.20;;;;;;;;;;5017997;28;20220;-68
2022/11/03 02:54:14;;;;;;;7.03;3.00;;;;;;;;;;5026946;28;20270;-68
2022/11/03 02:56:47;;;;;;;10.57;2.40;;;;;;;;;;5013911;28;20305;-68
2022/11/03 02:59:14;;;;;;;11.37;2.80;;;;;;;;;;5013624;28;20250;-68
2022/11/03 03:02:01;;;;;;;11.10;3.17;;;;;;;;;;5017628;28;20262;-68
2022/11/03 03:04:29;;;;;;;11.37;2.87;;;;;;;;;;5008127;28;20192;-68
2022/11/03 03:07:34;;;;;;;8.77;3.03;;;;;;;;;;5011343;28;20270;-68
2022/11/03 03:10:03;;;;;;;5.90;2.67;;;;;;;;;;4967405;28;20193;-68
2022/11/03 03:12:29;;;;;;;9.17;3.20;;;;;;;;;;4967997;28;20237;-68
2022/11/03 03:14:56;;;;;;;8.50;2.90;;;;;;;;;;4979109;28;20220;-67
2022/11/03 03:17:24;;;;;;;9.67;3.60;;;;;;;;;;5022331;28;20270;-68
2022/11/03 03:19:57;;;;;;;9.70;3.20;;;;;;;;;;5006621;28;20270;-68
2022/11/03 03:22:27;;;;;;;6.47;3.10;;;;;;;;;;5012348;28;20192;-68
2022/11/03 03:25:02;;;;;;;10.07;3.40;;;;;;;;;;5026877;28;20221;-68
2022/11/03 03:27:28;;;;;;;14.53;3.73;;;;;;;;;;5024489;28;20223;-68
2022/11/03 03:29:56;;;;;;;13.75;3.78;;;;;;;;;;5022007;28;21418;-68
2022/11/03 03:32:23;;;;;;;14.60;3.57;;;;;;;;;;4996063;28;20243;-68
2022/11/03 03:34:49;;;;;;;12.10;3.80;;;;;;;;;;5021990;28;20272;-68
2022/11/03 03:37:16;;;;;;;11.10;3.53;;;;;;;;;;5011330;28;20247;-68
2022/11/03 03:39:44;;;;;;;10.93;3.87;;;;;;;;;;5021416;28;20666;-67
2022/11/03 03:42:11;;;;;;;8.57;3.83;;;;;;;;;;5026542;28;20192;-68
2022/11/03 03:44:37;;;;;;;13.63;3.50;;;;;;;;;;5013338;28;20272;-68
2022/11/03 03:47:18;;;;;;;11.53;3.73;;;;;;;;;;5018925;28;20238;-67
2022/11/03 03:49:44;;;;;;;15.57;3.70;;;;;;;;;;5029253;28;20227;-68
2022/11/03 03:52:11;;;;;;;13.17;3.80;;;;;;;;;;5022335;28;20247;-68
2022/11/03 03:54:37;;;;;;;9.43;3.40;;;;;;;;;;5011987;28;20258;-68
2022/11/03 03:57:22;;;;;;;9.37;3.83;;;;;;;;;;5012089;28;20180;-68
2022/11/03 03:59:49;;;;;;;8.97;3.37;;;;;;;;;;5014616;28;20219;-68
2022/11/03 04:02:15;;;;;;;12.77;3.97;;;;;;;;;;5017717;28;20196;-68
2022/11/03 04:04:42;;;;;;;14.17;4.13;;;;;;;;;;5015616;28;20524;-68
2022/11/03 04:09:54;;;;;;;11.60;3.77;;;;;;;;;;5029184;28;20202;-68
2022/11/03 04:23:24;;;;;;;10.63;3.90;;;;;;;;;;5030389;28;20240;-72
2022/11/03 04:25:54;;;;;;;9.23;3.43;;;;;;;;;;5029965;28;20207;-70
2022/11/03 04:28:21;;;;;;;11.53;3.37;;;;;;;;;;5036221;28;20217;-73
2022/11/03 04:30:48;;;;;;;10.90;3.10;;;;;;;;;;5033090;28;20274;-73
2022/11/03 04:33:21;;;;;;;8.23;3.07;;;;;;;;;;5030093;28;20203;-72
2022/11/03 04:35:48;;;;;;;10.30;3.30;;;;;;;;;;5022014;28;20282;-71
2022/11/03 04:38:15;;;;;;;9.80;3.00;;;;;;;;;;5033418;28;20749;-71
2022/11/03 04:40:43;;;;;;;6.13;2.70;;;;;;;;;;5037689;28;20231;-71
2022/11/03 04:43:12;;;;;;;9.37;2.90;;;;;;;;;;5032435;28;20655;-71
2022/11/03 04:45:39;;;;;;;8.33;2.70;;;;;;;;;;5028468;28;20229;-71
2022/11/03 04:48:09;;;;;;;9.80;2.87;;;;;;;;;;5012497;28;20195;-72
2022/11/03 04:50:36;;;;;;;10.47;3.00;;;;;;;;;;5028167;28;20274;-71
2022/11/03 04:53:04;;;;;;;7.77;2.40;;;;;;;;;;5027520;28;20709;-69
2022/11/03 04:55:31;;;;;;;10.30;2.97;;;;;;;;;;5023228;28;20199;-69
2022/11/03 04:57:59;;;;;;;6.87;2.40;;;;;;;;;;5024520;28;21546;-69
2022/11/03 05:00:25;;;;;;;6.83;2.13;;;;;;;;;;5029776;28;20204;-69
2022/11/03 05:02:52;;;;;;;6.67;2.70;;;;;;;;;;5022663;28;20245;-69
2022/11/03 05:05:23;;;;;;;6.67;2.73;;;;;;;;;;5033688;28;20191;-69
2022/11/03 05:07:53;;;;;;;8.50;3.30;;;;;;;;;;5027010;28;20226;-69
2022/11/03 05:10:20;;;;;;;9.57;2.80;;;;;;;;;;5031298;28;20253;-69
2022/11/03 05:12:47;;;;;;;8.97;3.27;;;;;;;;;;5032533;28;20235;-71
2022/11/03 05:15:27;;;;;;;10.80;3.17;;;;;;;;;;5032310;28;20194;-71
2022/11/03 05:17:53;;;;;;;10.30;3.10;;;;;;;;;;5034765;28;20895;-71
2022/11/03 05:20:42;;;;;;;6.33;2.93;;;;;;;;;;5032888;28;20245;-71
2022/11/03 05:23:09;;;;;;;13.77;5.23;;;;;;;;;;5029957;28;20191;-70
2022/11/03 05:25:40;;;;;;;9.27;4.70;;;;;;;;;;5030204;28;20218;-71
2022/11/03 05:28:27;;;;;;;11.57;4.20;;;;;;;;;;5030202;28;20196;-72
2022/11/03 05:30:54;;;;;;;9.07;4.10;;;;;;;;;;5022173;28;20225;-70
2022/11/03 05:33:30;;;;;;;8.20;3.63;;;;;;;;;;5026131;28;20315;-70
2022/11/03 05:35:59;;;;;;;6.83;3.30;;;;;;;;;;5026547;28;20270;-70
2022/11/03 05:38:28;;;;;;;7.03;2.97;;;;;;;;;;5025694;28;20990;-70
2022/11/03 05:40:54;;;;;;;7.80;3.63;;;;;;;;;;5029968;28;20281;-70
2022/11/03 05:43:21;;;;;;;11.57;3.70;;;;;;;;;;5021407;28;20777;-70
2022/11/03 05:45:48;;;;;;;6.17;3.13;;;;;;;;;;5015702;28;20776;-69
2022/11/03 05:48:17;;;;;;;8.60;3.40;;;;;;;;;;5015763;28;20262;-69
2022/11/03 05:50:44;;;;;;;4.70;3.10;;;;;;;;;;5026311;28;20219;-70
2022/11/03 05:53:18;;;;;;;9.40;3.20;;;;;;;;;;5016581;28;20243;-71
2022/11/03 05:55:46;;;;;;;11.77;4.13;;;;;;;;;;5027105;28;20199;-70
2022/11/03 05:58:15;;;;;;;9.20;3.87;;;;;;;;;;5010530;28;20196;-70
2022/11/03 06:00:41;;;;;;;5.33;2.93;;;;;;;;;;5012325;28;20254;-70
2022/11/03 06:03:21;;;;;;;5.97;3.50;;;;;;;;;;5003530;28;20241;-70
2022/11/03 06:05:48;;;;;;;8.10;3.80;;;;;;;;;;5019912;28;20191;-70
2022/11/03 06:08:18;;;;;;;10.27;4.10;;;;;;;;;;5023128;28;20191;-70
2022/11/03 06:10:46;;;;;;;8.00;3.60;;;;;;;;;;5030398;28;20618;-70
2022/11/03 06:13:15;;;;;;;8.73;3.47;;;;;;;;;;5026992;28;20219;-70
2022/11/03 06:15:42;;;;;;;5.03;2.97;;;;;;;;;;5004649;28;20195;-70
2022/11/03 06:18:14;;;;;;;6.47;3.83;;;;;;;;;;5010591;28;20222;-69
2022/11/03 06:20:41;;;;;;;4.27;2.90;;;;;;;;;;5023991;28;20438;-68
2022/11/03 06:23:08;;;;;;;5.80;2.87;;;;;;;;;;5018811;28;20192;-70
2022/11/03 06:25:35;;;;;;;7.27;3.30;;;;;;;;;;5026852;28;20200;-71
2022/11/03 06:28:02;;;;;;;7.37;3.30;;;;;;;;;;5018133;28;20253;-72
2022/11/03 06:30:32;;;;;;;8.73;4.23;;;;;;;;;;5035726;28;20234;-69
2022/11/03 06:33:00;;;;;;;7.60;3.53;;;;;;;;;;5021394;28;20246;-69
2022/11/03 06:35:28;;;;;;;13.40;4.37;;;;;;;;;;5026963;28;20184;-69
2022/11/03 06:37:55;;;;;;;11.80;4.97;;;;;;;;;;5032827;28;20210;-69
2022/11/03 06:40:25;;;;;;;8.83;4.20;;;;;;;;;;5023969;28;20460;-69
2022/11/03 06:42:51;;;;;;;10.07;4.90;;;;;;;;;;5013910;28;20811;-69
2022/11/03 06:45:19;;;;;;;9.77;4.03;;;;;;;;;;5008649;28;20188;-69
2022/11/03 06:47:46;;;;;;;8.03;3.67;;;;;;;;;;5008442;28;20262;-69
2022/11/03 06:50:26;;;;;;;9.00;4.10;;;;;;;;;;5019225;28;20236;-68
2022/11/03 06:52:53;;;;;;;6.77;3.73;;;;;;;;;;5009709;28;20227;-68
2022/11/03 06:55:23;;;;;;;11.03;3.40;;;;;;;;;;5009747;28;20192;-67
2022/11/03 06:57:52;;;;;;;7.80;3.13;;;;;;;;;;5010258;28;20325;-69
2022/11/03 07:00:20;;;;;;;7.60;2.83;;;;;;;;;;5034709;28;20191;-70
2022/11/03 07:03:12;;;;;;;10.93;3.50;;;;;;;;;;5028776;28;21045;-70
2022/11/03 07:05:39;;;;;;;7.27;2.73;;;;;;;;;;5026482;28;20233;-70
2022/11/03 07:08:13;;;;;;;8.47;3.20;;;;;;;;;;5031747;28;20197;-70
2022/11/03 07:10:39;;;;;;;8.03;2.67;;;;;;;;;;5030497;28;20199;-70
2022/11/03 07:13:14;;;;;;;13.47;3.30;;;;;;;;;;5034557;28;20598;-68
2022/11/03 07:15:41;;;;;;;4.53;2.33;;;;;;;;;;5015720;28;20203;-71
2022/11/03 07:18:13;;;;;;;6.83;2.50;;;;;;;;;;5037330;28;20623;-72
2022/11/03 07:20:42;;;;;;;5.43;3.10;;;;;;;;;;5020876;28;20302;-70
2022/11/03 07:23:09;;;;;;;8.43;3.20;;;;;;;;;;5012990;28;20207;-71
2022/11/03 07:25:36;;;;;;;6.50;2.73;;;;;;;;;;5030319;28;20786;-68
2022/11/03 07:28:03;;;;;;;6.47;3.17;;;;;;;;;;5021767;28;20839;-72
2022/11/03 07:30:32;;;;;;;7.30;2.70;;;;;;;;;;5008913;28;20207;-72
2022/11/03 07:33:11;;;;;;;7.50;3.40;;;;;;;;;;4994103;28;20715;-69
2022/11/03 07:35:41;;;;;;;7.43;2.93;;;;;;;;;;5028187;28;20223;-71
2022/11/03 07:38:28;;;;;;;6.97;2.70;;;;;;;;;;5012441;28;20250;-70
2022/11/03 07:40:55;;;;;;;9.03;2.70;;;;;;;;;;5018860;28;20598;-69
2022/11/03 07:43:24;;;;;;;6.87;2.60;;;;;;;;;;5014195;28;20195;-69
2022/11/03 07:45:51;;;;;;;7.43;2.50;;;;;;;;;;5028444;28;20196;-70
2022/11/03 07:48:18;;;;;;;11.30;2.87;;;;;;;;;;5013319;28;20230;-70
2022/11/03 07:50:54;;;;;;;8.50;2.53;;;;;;;;;;5029139;28;20326;-71
2022/11/03 07:53:43;;;;;;;9.53;4.00;;;;;;;;;;5044539;28;20855;-70
2022/11/03 08:07:50;;;;;;;12.67;4.67;;;;;;;;;;5012801;28;20183;-71
2022/11/03 08:10:16;;;;;;;10.63;4.03;;;;;;;;;;5021386;28;20609;-71
2022/11/03 08:12:43;;;;;;;11.33;4.57;;;;;;;;;;5032719;28;20199;-71
2022/11/03 08:15:10;;;;;;;13.07;5.10;;;;;;;;;;5032244;28;20199;-70
2022/11/03 08:17:37;;;;;;;11.83;5.17;;;;;;;;;;5030726;28;20199;-70
2022/11/03 08:20:03;;;;;;;12.93;5.13;;;;;;;;;;5031965;28;20198;-70
2022/11/03 08:22:30;;;;;;;10.67;3.80;;;;;;;;;;5031080;28;20242;-70
2022/11/03 08:24:57;;;;;;;11.77;3.60;;;;;;;;;;5031398;28;20192;-71
2022/11/03 08:27:23;;;;;;;8.80;3.33;;;;;;;;;;5021829;28;20212;-71
2022/11/03 08:29:50;;;;;;;7.57;2.67;;;;;;;;;;5031936;28;20667;-70
2022/11/03 08:32:17;;;;;;;10.40;3.20;;;;;;;;;;5032753;28;20560;-69
2022/11/03 08:34:44;;;;;;;9.33;3.03;;;;;;;;;;5030351;28;20188;-69
2022/11/03 08:37:10;;;;;;;9.27;2.60;;;;;;;;;;5031349;28;20187;-68
2022/11/03 08:39:37;;;;;;;5.87;2.33;;;;;;;;;;5032094;28;20559;-69
2022/11/03 08:42:03;;;;;;;9.87;2.73;;;;;;;;;;5027795;28;20267;-69
2022/11/03 08:44:30;;;;;;;8.93;2.70;;;;;;;;;;5012666;28;20303;-69
2022/11/03 08:46:57;;;;;;;7.63;2.43;;;;;;;;;;5013638;28;20733;-69
2022/11/03 08:49:24;;;;;;;6.87;2.80;;;;;;;;;;5021147;28;20345;-69
2022/11/03 08:51:50;;;;;;;9.50;2.70;;;;;;;;;;5029182;28;20196;-69
2022/11/03 08:54:17;;;;;;;6.60;2.47;;;;;;;;;;5031983;28;20302;-69
2022/11/03 08:56:45;;;;;;;13.27;2.87;;;;;;;;;;5032352;28;20218;-69
2022/11/03 08:59:12;;;;;;;8.50;2.43;;;;;;;;;;5032070;28;20176;-69
2022/11/03 09:01:38;;;;;;;7.53;2.47;;;;;;;;;;5031275;28;20231;-68
2022/11/03 09:04:05;;;;;;;10.87;2.70;;;;;;;;;;5023347;28;20195;-70
2022/11/03 09:06:32;;;;;;;6.30;2.40;;;;;;;;;;5020201;28;20192;-69
2022/11/03 09:08:59;;;;;;;7.67;2.53;;;;;;;;;;5011459;28;20881;-70
2022/11/03 09:11:46;;;;;;;8.27;2.70;;;;;;;;;;5010377;28;20184;-70
2022/11/03 09:14:13;;;;;;;8.77;3.13;;;;;;;;;;5014159;28;20231;-68
2022/11/03 09:16:40;;;;;;;9.10;2.87;;;;;;;;;;5029891;28;20198;-67
2022/11/03 09:19:07;;;;;;;8.57;2.60;;;;;;;;;;5030621;28;20199;-69
2022/11/03 09:21:34;;;;;;;11.80;3.27;;;;;;;;;;5031130;28;20274;-69
2022/11/03 09:24:01;;;;;;;8.70;2.80;;;;;;;;;;5030630;28;20191;-69
2022/11/03 09:26:27;;;;;;;9.87;2.97;;;;;;;;;;5029613;28;20219;-69
2022/11/03 09:28:54;;;;;;;9.47;3.27;;;;;;;;;;5030928;28;20590;-70
2022/11/03 09:31:22;;;;;;;6.67;2.40;;;;;;;;;;5030996;28;20730;-70
2022/11/03 09:33:48;;;;;;;7.63;2.10;;;;;;;;;;5030635;28;20223;-70
2022/11/03 09:36:33;;;;;;;8.60;2.63;;;;;;;;;;5030610;28;20174;-70
2022/11/03 09:39:00;;;;;;;6.17;2.30;;;;;;;;;;5030758;28;20194;-69
2022/11/03 09:41:26;;;;;;;6.67;2.30;;;;;;;;;;5029948;28;20225;-69
2022/11/03 09:44:13;;;;;;;11.13;2.53;;;;;;;;;;5030338;28;20654;-69
2022/11/03 09:46:40;;;;;;;7.77;1.90;;;;;;;;;;5029518;28;20591;-69
2022/11/03 09:49:06;;;;;;;6.00;1.57;;;;;;;;;;5025142;28;20192;-69
2022/11/03 09:51:34;;;;;;;5.67;2.10;;;;;;;;;;5010914;28;20184;-69
2022/11/03 09:54:01;;;;;;;8.30;2.47;;;;;;;;;;5009204;28;20208;-69
2022/11/03 09:56:28;;;;;;;7.80;2.17;;;;;;;;;;5009809;28;20184;-69
2022/11/03 09:58:55;;;;;;;9.10;1.73;;;;;;;;;;4993322;28;20199;-69
2022/11/03 10:01:22;;;;;;;10.00;2.27;;;;;;;;;;5010087;28;20211;-69
2022/11/03 10:03:49;;;;;;;10.10;2.03;;;;;;;;;;5025708;28;20195;-69
2022/11/03 10:06:16;;;;;;;3.77;1.60;;;;;;;;;;5010772;28;20212;-69
2022/11/03 10:08:43;;;;;;;8.00;1.70;;;;;;;;;;5010157;28;20644;-69
2022/11/03 10:11:10;;;;;;;5.93;1.53;;;;;;;;;;5025953;28;20279;-69
2022/11/03 10:13:36;;;;;;;10.03;2.00;;;;;;;;;;5025447;28;20204;-70
2022/11/03 10:16:06;;;;;;;4.97;1.50;;;;;;;;;;5010319;28;20671;-69
2022/11/03 10:18:33;;;;;;;6.07;1.67;;;;;;;;;;5010338;28;20290;-70
2022/11/03 10:21:02;;;;;;;6.80;1.87;;;;;;;;;;5025603;28;20730;-70
2022/11/03 10:23:29;;;;;;;5.43;1.60;;;;;;;;;;5025641;28;20188;-70
2022/11/03 10:26:16;;;;;;;5.37;1.83;;;;;;;;;;5010411;28;20188;-70
2022/11/03 10:28:55;;;;;;;7.60;2.00;;;;;;;;;;5025049;28;20191;-70
2022/11/03 10:31:21;;;;;;;5.87;1.83;;;;;;;;;;5010394;28;20180;-70
2022/11/03 10:33:52;;;;;;;6.40;2.30;;;;;;;;;;5020405;28;20211;-70
2022/11/03 10:36:19;;;;;;;7.70;1.73;;;;;;;;;;5030041;28;20199;-70
2022/11/03 10:38:46;;;;;;;6.17;1.53;;;;;;;;;;5029743;28;20219;-70
2022/11/03 10:41:14;;;;;;;9.17;1.70;;;;;;;;;;5030383;28;20651;-70
2022/11/03 10:43:41;;;;;;;3.77;1.30;;;;;;;;;;5029866;28;20219;-70
2022/11/03 10:46:18;;;;;;;5.97;1.50;;;;;;;;;;5028432;28;20200;-70
2022/11/03 10:49:13;;;;;;;5.10;1.30;;;;;;;;;;5024019;28;20278;-70
2022/11/03 10:51:43;;;;;;;3.43;1.30;;;;;;;;;;5009671;28;20213;-70
2022/11/03 10:54:13;;;;;;;8.67;1.67;;;;;;;;;;5008385;28;20216;-70
2022/11/03 10:56:40;;;;;;;5.67;1.40;;;;;;;;;;5008400;28;20683;-70
2022/11/03 10:59:13;;;;;;;7.17;1.80;;;;;;;;;;5009785;28;20272;-70
2022/11/03 11:01:40;;;;;;;6.23;1.40;;;;;;;;;;5008541;28;20188;-70
2022/11/03 11:04:07;;;;;;;6.83;1.80;;;;;;;;;;5008439;28;20192;-70
2022/11/03 11:06:34;;;;;;;7.33;1.30;;;;;;;;;;5009062;28;20203;-70
2022/11/03 11:09:01;;;;;;;9.50;1.70;;;;;;;;;;5009737;28;20246;-70
2022/11/03 11:11:28;;;;;;;5.27;1.27;;;;;;;;;;4992608;28;20184;-70
2022/11/03 11:14:33;;;;;;;6.27;1.20;;;;;;;;;;5008471;28;20653;-70
2022/11/03 11:17:00;;;;;;;8.23;1.63;;;;;;;;;;5007163;28;20215;-70
2022/11/03 11:19:27;;;;;;;6.10;2.13;;;;;;;;;;5020933;28;20217;-70
2022/11/03 11:21:54;;;;;;;9.07;1.70;;;;;;;;;;5009808;28;20223;-70
2022/11/03 11:24:39;;;;;;;7.27;1.30;;;;;;;;;;5009347;28;20279;-71
2022/11/03 11:27:24;;;;;;;4.33;1.23;;;;;;;;;;5009653;28;20238;-70
2022/11/03 11:29:51;;;;;;;5.47;1.67;;;;;;;;;;5009569;28;20192;-70
2022/11/03 11:32:36;;;;;;;4.50;1.23;;;;;;;;;;5009817;28;20192;-70
2022/11/03 11:35:02;;;;;;;8.40;2.00;;;;;;;;;;5009488;28;20786;-70
2022/11/03 11:37:29;;;;;;;4.70;1.60;;;;;;;;;;5007907;28;20607;-70
2022/11/03 11:39:56;;;;;;;4.10;1.70;;;;;;;;;;5009655;28;20184;-70
2022/11/03 11:42:22;;;;;;;11.43;1.93;;;;;;;;;;5007891;28;20287;-70
2022/11/03 11:44:52;;;;;;;7.57;1.60;;;;;;;;;;5008099;28;20206;-70
2022/11/03 11:47:21;;;;;;;6.27;1.93;;;;;;;;;;5024935;28;20192;-70
2022/11/03 11:50:06;;;;;;;4.77;1.40;;;;;;;;;;5022252;28;20227;-70
2022/11/03 11:52:51;;;;;;;7.93;1.73;;;;;;;;;;5028812;28;20222;-70
2022/11/03 11:55:24;;;;;;;7.90;1.80;;;;;;;;;;5029050;28;20242;-71
2022/11/03 11:57:50;;;;;;;5.37;1.77;;;;;;;;;;5029222;28;20187;-70
2022/11/03 12:00:24;;;;;;;5.13;1.93;;;;;;;;;;5028055;28;20614;-71
2022/11/03 12:02:51;;;;;;;7.50;2.00;;;;;;;;;;5015544;28;20191;-70
2022/11/03 12:05:18;;;;;;;5.97;1.87;;;;;;;;;;5031698;28;20238;-71
2022/11/03 12:07:45;;;;;;;9.13;1.83;;;;;;;;;;5032503;28;20201;-71
2022/11/03 12:10:16;;;;;;;7.30;1.70;;;;;;;;;;5031384;28;20175;-71
2022/11/03 12:13:00;;;;;;;5.40;1.70;;;;;;;;;;5032437;28;20172;-71
2022/11/03 12:15:46;;;;;;;10.13;1.90;;;;;;;;;;5030767;28;20269;-71
2022/11/03 12:18:27;;;;;;;5.33;1.90;;;;;;;;;;5032467;28;20187;-71
2022/11/03 12:20:54;;;;;;;10.20;2.00;;;;;;;;;;5030262;28;20206;-71
2022/11/03 12:23:42;;;;;;;4.13;1.60;;;;;;;;;;5032071;28;20277;-71
2022/11/03 12:26:13;;;;;;;8.57;2.23;;;;;;;;;;5032503;28;20183;-70
2022/11/03 12:28:39;;;;;;;7.17;1.73;;;;;;;;;;5031163;28;20187;-71
2022/11/03 12:31:06;;;;;;;5.20;1.60;;;;;;;;;;5032135;28;20195;-71
2022/11/03 12:33:33;;;;;;;6.13;1.60;;;;;;;;;;5030968;28;20188;-71
2022/11/03 12:36:00;;;;;;;4.83;1.73;;;;;;;;;;5030856;28;20968;-71
2022/11/03 12:38:26;;;;;;;3.67;1.17;;;;;;;;;;5031200;28;20281;-71
2022/11/03 12:40:53;;;;;;;8.27;1.90;;;;;;;;;;5031992;28;20195;-71
2022/11/03 12:43:20;;;;;;;7.47;1.80;;;;;;;;;;5014192;28;20219;-71
2022/11/03 12:45:47;;;;;;;7.70;2.30;;;;;;;;;;5031716;28;20195;-71
2022/11/03 12:48:13;;;;;;;4.60;1.60;;;;;;;;;;5030636;28;20237;-71
2022/11/03 12:50:40;;;;;;;6.90;1.80;;;;;;;;;;5012259;28;20235;-71
2022/11/03 12:53:07;;;;;;;5.57;1.67;;;;;;;;;;5010917;28;20180;-71
2022/11/03 12:55:34;;;;;;;5.33;1.77;;;;;;;;;;5010764;28;20613;-71
2022/11/03 12:58:04;;;;;;;7.93;2.17;;;;;;;;;;5013454;28;20203;-71
2022/11/03 13:00:31;;;;;;;6.13;1.80;;;;;;;;;;5031538;28;20241;-71
2022/11/03 13:02:58;;;;;;;9.03;2.17;;;;;;;;;;5031620;28;20579;-71
2022/11/03 13:05:25;;;;;;;7.57;1.50;;;;;;;;;;4998033;28;20199;-71
2022/11/03 13:07:52;;;;;;;10.17;2.13;;;;;;;;;;5030285;28;20678;-71
2022/11/03 13:10:18;;;;;;;7.10;1.97;;;;;;;;;;5029590;28;20253;-71
2022/11/03 13:12:45;;;;;;;6.83;2.10;;;;;;;;;;5031095;28;20203;-71
2022/11/03 13:15:13;;;;;;;4.73;1.60;;;;;;;;;;5016728;28;20207;-71
2022/11/03 13:17:40;;;;;;;6.13;2.00;;;;;;;;;;5011149;28;20208;-71
2022/11/03 13:20:26;;;;;;;5.30;1.70;;;;;;;;;;5010608;28;20629;-71
2022/11/03 13:22:53;;;;;;;6.77;2.00;;;;;;;;;;5010047;28;20192;-71
2022/11/03 13:25:20;;;;;;;9.43;2.00;;;;;;;;;;5011339;28;20191;-71
2022/11/03 13:27:52;;;;;;;5.93;2.00;;;;;;;;;;5011160;28;20279;-71
2022/11/03 13:30:19;;;;;;;5.87;1.90;;;;;;;;;;5011381;28;20192;-71
2022/11/03 13:32:46;;;;;;;6.03;2.07;;;;;;;;;;5011309;28;20188;-71
2022/11/03 13:35:13;;;;;;;8.10;2.00;;;;;;;;;;5010106;28;20318;-71
2022/11/03 13:37:39;;;;;;;8.30;2.13;;;;;;;;;;5028743;28;21011;-71
2022/11/03 13:40:06;;;;;;;5.90;1.80;;;;;;;;;;5030747;28;20195;-72
2022/11/03 13:42:33;;;;;;;6.80;2.00;;;;;;;;;;5018955;28;20716;-72
2022/11/03 13:45:00;;;;;;;6.50;2.37;;;;;;;;;;5013052;28;20287;-72
2022/11/03 13:47:26;;;;;;;6.03;2.17;;;;;;;;;;5018293;28;20532;-72
2022/11/03 13:50:13;;;;;;;6.50;1.97;;;;;;;;;;5023448;28;20317;-72
2022/11/03 13:52:57;;;;;;;6.27;1.97;;;;;;;;;;5023346;28;20175;-72
2022/11/03 13:55:44;;;;;;;8.20;2.03;;;;;;;;;;5030205;28;20215;-72
2022/11/03 13:58:11;;;;;;;4.73;1.90;;;;;;;;;;5028565;28;20612;-72
2022/11/03 14:00:57;;;;;;;6.63;1.83;;;;;;;;;;5015004;28;20218;-72
2022/11/03 14:03:42;;;;;;;7.23;2.30;;;;;;;;;;5020968;28;20171;-72
2022/11/03 14:06:28;;;;;;;11.43;2.60;;;;;;;;;;5029087;28;20253;-71
2022/11/03 14:08:55;;;;;;;9.03;2.63;;;;;;;;;;5028682;28;20239;-71
2022/11/03 14:14:09;;;;;;;10.00;2.60;;;;;;;;;;5016323;28;20222;-71
2022/11/03 14:16:35;;;;;;;5.30;2.17;;;;;;;;;;5025332;28;20218;-72
2022/11/03 14:19:02;;;;;;;7.70;2.30;;;;;;;;;;5026306;28;20191;-72
2022/11/03 14:21:29;;;;;;;9.50;2.50;;;;;;;;;;5028993;28;20192;-72
2022/11/03 14:23:56;;;;;;;6.07;2.30;;;;;;;;;;5028086;28;20191;-72
2022/11/03 14:26:23;;;;;;;8.73;2.70;;;;;;;;;;5009245;28;20603;-72
2022/11/03 14:29:07;;;;;;;6.97;2.40;;;;;;;;;;5024934;28;20175;-72
2022/11/03 14:31:35;;;;;;;8.07;2.40;;;;;;;;;;5029852;28;20191;-72
2022/11/03 14:34:02;;;;;;;7.07;2.40;;;;;;;;;;5026738;28;20196;-72
2022/11/03 14:36:29;;;;;;;6.33;2.33;;;;;;;;;;5029542;28;20543;-72
2022/11/03 14:38:56;;;;;;;6.10;2.50;;;;;;;;;;5029528;28;20953;-72
2022/11/03 14:44:25;;;;;;;7.73;2.97;;;;;;;;;;5029672;28;21092;-72
2022/11/03 14:46:51;;;;;;;8.60;3.30;;;;;;;;;;5028986;28;20195;-72
2022/11/03 14:49:18;;;;;;;7.20;3.13;;;;;;;;;;5022566;28;20253;-72
2022/11/03 14:51:45;;;;;;;7.30;3.07;;;;;;;;;;5021343;28;20200;-71
2022/11/03 14:54:29;;;;;;;7.03;2.93;;;;;;;;;;5028640;28;20333;-72
2022/11/03 14:56:56;;;;;;;6.43;2.87;;;;;;;;;;5010178;28;20212;-72
2022/11/03 14:59:22;;;;;;;6.27;2.67;;;;;;;;;;5020243;28;20195;-72
2022/11/03 15:01:52;;;;;;;9.23;3.07;;;;;;;;;;5028423;28;20202;-72
2022/11/03 15:04:20;;;;;;;9.47;3.40;;;;;;;;;;5029145;28;20207;-71
2022/11/03 15:06:47;;;;;;;8.67;3.03;;;;;;;;;;5027892;28;20188;-71
2022/11/03 15:09:14;;;;;;;10.23;3.27;;;;;;;;;;5022686;28;20195;-71
2022/11/03 15:11:41;;;;;;;7.90;3.37;;;;;;;;;;5028171;28;20278;-72
2022/11/03 15:14:08;;;;;;;10.23;3.00;;;;;;;;;;5027799;28;20282;-71
2022/11/03 15:16:35;;;;;;;12.33;3.20;;;;;;;;;;5028279;28;20641;-72
2022/11/03 15:19:03;;;;;;;9.27;3.33;;;;;;;;;;5028969;28;20250;-71
2022/11/03 15:21:30;;;;;;;7.00;2.87;;;;;;;;;;5028059;28;20278;-71
2022/11/03 15:23:57;;;;;;;10.60;3.57;;;;;;;;;;5026786;28;20218;-71
2022/11/03 15:26:44;;;;;;;7.53;3.10;;;;;;;;;;5020252;28;20204;-71
2022/11/03 15:29:10;;;;;;;12.17;4.47;;;;;;;;;;5028448;28;20207;-71
2022/11/03 15:31:38;;;;;;;15.37;6.07;;;;;;;;;;5029074;28;20290;-71